ALXO2: Washita River, Alex, OK

Data processed at Sat Mar 10 2018 22:20


All information presented herein is the property of the government of the United States of America and may be revised or deleted at any time without prior notice.
Dissemination of this information without the expressed written consent of the Public Affairs Office, Tulsa District U.S. Army Corps of Engineers is strictly prohibited.
These data are gathered electronically and, as presented, have not undergone any form of quality control. These data are not guaranteed to be valid or correct.
Go to home page.
Go to station list.

Upstream stations:

Downstream station:
Previous Day
Next Day
Current Day
    
SHEF ID:       ALXO2     Washita River at Alex, OK
STATION TYPE:  

               PRECIP     STAGE  RIV-FLOW  BAT-LOAD
                   in        ft       cfs      volt
              Ccp-Rev   Ccp-Rev   Ccp-Rev   Ccp-Rev
(US/Central)
03/08 00:00      0.00      2.16       409     12.33
03/08 01:00      0.00      2.15       405     12.33
03/08 02:00      0.00      2.14       401     12.33
03/08 03:00      0.00      2.14       401     12.25
03/08 04:00      0.00      2.13       396     12.25
03/08 05:00      0.00      2.12       392     12.25
03/08 06:00      0.00      2.12       392     12.17
03/08 07:00      0.00      2.11       387     12.17
03/08 08:00      0.00      2.11       387     12.17
03/08 09:00      0.00      2.11       387     12.65
03/08 10:00      0.00      2.11       387     13.21
03/08 11:00      0.00      2.11       387     13.21
03/08 12:00      0.00      2.10       383     13.13
03/08 13:00      0.00      2.09       379     13.13
03/08 14:00      0.00      2.07       370     13.13
03/08 15:00      0.00      2.06       366     13.13
03/08 16:00      0.00      2.05       361     13.13
03/08 17:00      0.00      2.00       340     13.13
03/08 18:00      0.00      2.03       353     13.05
03/08 19:00      0.00      2.01       344     12.65
03/08 20:00      0.00      2.01       344     12.49
03/08 21:00      0.00      2.00       340     12.41
03/08 22:00      0.00      1.98       331     12.41
03/08 23:00      0.00      1.99       336     12.41